createdAt,value
2023-03-17T00:01:56.969Z,10.10
2023-03-17T00:04:26.668Z,10.10
2023-03-17T00:06:55.131Z,10.10
2023-03-17T00:11:51.062Z,9.90
2023-03-17T00:14:19.849Z,9.80
2023-03-17T00:16:52.733Z,9.60
2023-03-17T00:19:28.337Z,9.60
2023-03-17T00:21:56.216Z,9.50
2023-03-17T00:29:20.451Z,9.60
2023-03-17T00:31:48.156Z,9.50
2023-03-17T00:34:18.566Z,9.60
2023-03-17T00:36:50.130Z,9.60
2023-03-17T00:44:14.539Z,9.60
2023-03-17T00:51:46.348Z,9.40
2023-03-17T00:54:16.813Z,9.40
2023-03-17T00:56:45.707Z,9.30
2023-03-17T01:01:49.153Z,9.10
2023-03-17T01:04:17.034Z,9.10
2023-03-17T01:06:44.660Z,9.10
2023-03-17T01:09:18.626Z,9.10
2023-03-17T01:11:47.041Z,8.90
2023-03-17T01:14:16.001Z,9.00
2023-03-17T01:19:13.576Z,9.00
2023-03-17T01:21:42.538Z,8.70
2023-03-17T01:24:10.194Z,8.90
2023-03-17T01:26:39.083Z,8.80
2023-03-17T01:29:07.980Z,8.80
2023-03-17T01:31:36.345Z,8.90
2023-03-17T01:34:06.425Z,8.80
2023-03-17T01:36:34.436Z,9.00
2023-03-17T01:39:03.420Z,9.00
2023-03-17T01:49:16.048Z,9.00
2023-03-17T01:52:09.134Z,9.00
2023-03-17T01:54:42.458Z,9.10
2023-03-17T01:57:23.393Z,9.20
2023-03-17T01:59:57.650Z,9.20
2023-03-17T02:02:31.687Z,9.30
2023-03-17T02:04:59.475Z,9.20
2023-03-17T02:07:27.602Z,9.30
2023-03-17T02:09:57.134Z,9.30
2023-03-17T02:12:27.854Z,9.30
2023-03-17T02:14:55.500Z,9.20
2023-03-17T02:19:53.066Z,9.10
2023-03-17T02:24:56.624Z,9.00
2023-03-17T02:27:46.465Z,9.00
2023-03-17T02:35:13.987Z,8.90
2023-03-17T02:37:46.691Z,8.80
2023-03-17T02:47:41.523Z,8.60
2023-03-17T03:29:37.310Z,8.90
2023-03-17T03:34:33.071Z,9.20
2023-03-17T03:37:00.564Z,8.90
2023-03-17T03:44:26.778Z,9.00
2023-03-17T03:46:54.326Z,8.80
2023-03-17T03:51:50.359Z,8.70
2023-03-17T04:01:42.663Z,8.80
2023-03-17T04:04:10.256Z,8.80
2023-03-17T04:23:54.016Z,9.00
2023-03-17T04:28:50.708Z,9.20
2023-03-17T04:31:18.381Z,9.20
2023-03-17T04:33:46.193Z,9.20
2023-03-17T04:38:50.211Z,9.20
2023-03-17T04:46:14.718Z,9.00
2023-03-17T04:51:11.852Z,8.90
2023-03-17T05:03:33.235Z,8.90
2023-03-17T05:06:02.157Z,9.10
2023-03-17T05:10:58.466Z,9.00
2023-03-17T05:13:27.288Z,9.00
2023-03-17T05:18:25.538Z,9.00
2023-03-17T05:20:53.702Z,9.10
2023-03-17T05:33:14.848Z,9.10
2023-03-17T05:35:43.351Z,9.00
2023-03-17T05:45:36.070Z,9.00
2023-03-17T05:48:04.791Z,9.00
2023-03-17T05:50:32.965Z,9.00
2023-03-17T05:53:01.135Z,8.90
2023-03-17T05:55:29.045Z,8.80
2023-03-17T05:57:56.980Z,8.80
2023-03-17T06:00:24.843Z,8.80
2023-03-17T06:02:52.472Z,9.00
2023-03-17T06:05:20.073Z,8.70
2023-03-17T06:10:24.376Z,8.90
2023-03-17T06:12:52.324Z,9.00
2023-03-17T06:15:20.560Z,8.90
2023-03-17T06:20:16.422Z,9.00
2023-03-17T06:25:30.979Z,9.00
2023-03-17T06:27:58.722Z,9.10
2023-03-17T06:32:56.961Z,9.10
2023-03-17T06:37:53.000Z,8.90
2023-03-17T06:40:20.720Z,9.40
2023-03-17T06:42:48.234Z,8.80
2023-03-17T06:47:44.179Z,9.00
2023-03-17T06:50:12.334Z,9.00
2023-03-17T06:52:40.978Z,9.00
2023-03-17T06:55:08.977Z,9.10
2023-03-17T07:02:34.861Z,9.00
2023-03-17T07:05:03.847Z,9.10
2023-03-17T07:09:59.560Z,9.20
2023-03-17T07:12:27.293Z,9.30
2023-03-17T07:14:55.199Z,9.10
2023-03-17T07:19:52.444Z,9.20
2023-03-17T07:22:20.435Z,9.80
2023-03-17T07:24:49.251Z,9.60
2023-03-17T07:27:17.044Z,9.70
2023-03-17T07:34:40.808Z,9.70
2023-03-17T07:37:08.539Z,9.70
2023-03-17T07:39:36.368Z,9.90
2023-03-17T07:47:01.023Z,9.90
2023-03-17T07:49:40.762Z,9.80
2023-03-17T07:52:10.571Z,10.00
2023-03-17T07:54:42.241Z,9.80
2023-03-17T07:57:10.924Z,9.90
2023-03-17T07:59:40.008Z,10.00
2023-03-17T08:07:06.315Z,10.20
2023-03-17T08:09:34.019Z,10.40
2023-03-17T08:14:29.885Z,10.20
2023-03-17T08:19:25.379Z,10.30
2023-03-17T08:21:52.985Z,10.40
2023-03-17T08:24:20.974Z,10.40
2023-03-17T08:26:49.416Z,10.90
2023-03-17T08:29:17.013Z,11.10
2023-03-17T08:31:46.618Z,11.00
2023-03-17T08:34:14.494Z,11.10
2023-03-17T08:36:42.791Z,11.10
2023-03-17T08:39:10.659Z,11.20
2023-03-17T08:41:38.866Z,11.10
2023-03-17T08:44:08.779Z,11.40
2023-03-17T08:46:36.709Z,11.60
2023-03-17T08:49:04.511Z,11.90
2023-03-17T08:51:34.855Z,12.00
2023-03-17T08:54:03.399Z,12.30
2023-03-17T09:03:56.141Z,12.90
2023-03-17T09:06:24.324Z,13.20
2023-03-17T09:11:28.936Z,13.10
2023-03-17T09:13:56.931Z,13.00
2023-03-17T09:16:25.365Z,12.60
2023-03-17T09:18:53.489Z,12.40
2023-03-17T09:21:21.386Z,12.20
2023-03-17T09:26:17.472Z,12.10
2023-03-17T09:31:13.355Z,12.30
2023-03-17T09:33:41.683Z,12.40
2023-03-17T09:36:10.707Z,12.30
2023-03-17T09:38:39.189Z,12.30
2023-03-17T09:41:24.903Z,12.30
2023-03-17T09:44:07.772Z,12.30
2023-03-17T09:46:47.622Z,12.30
2023-03-17T09:51:46.408Z,12.40
2023-03-17T09:54:18.421Z,12.50
2023-03-17T09:56:50.838Z,12.50
2023-03-17T09:59:34.131Z,13.00
2023-03-17T10:07:02.657Z,13.40
2023-03-17T10:12:16.716Z,14.40
2023-03-17T10:14:44.645Z,14.60
2023-03-17T10:17:16.439Z,14.60
2023-03-17T10:20:01.372Z,14.60
2023-03-17T10:22:30.316Z,14.70
2023-03-17T10:25:03.969Z,14.50
2023-03-17T10:27:36.596Z,14.50
2023-03-17T10:30:11.782Z,14.30
2023-03-17T10:32:41.049Z,14.30
2023-03-17T10:35:10.769Z,14.40
2023-03-17T10:37:38.536Z,14.70
2023-03-17T10:40:10.487Z,15.10
2023-03-17T10:43:00.374Z,16.00
2023-03-17T10:45:33.739Z,16.90
2023-03-17T10:48:04.413Z,17.80
2023-03-17T10:50:38.252Z,18.40
2023-03-17T10:53:09.389Z,18.40
2023-03-17T10:55:49.860Z,17.90
2023-03-17T10:58:33.838Z,17.40
2023-03-17T11:01:17.577Z,17.00
2023-03-17T11:03:45.244Z,16.60
2023-03-17T11:06:17.013Z,16.20
2023-03-17T11:11:34.700Z,15.60
2023-03-17T11:14:11.759Z,15.40
2023-03-17T11:16:53.399Z,15.20
2023-03-17T11:19:25.382Z,15.10
2023-03-17T11:22:05.339Z,15.00
2023-03-17T11:24:41.484Z,15.20
2023-03-17T11:27:17.251Z,15.30
2023-03-17T11:30:03.499Z,15.50
2023-03-17T11:32:49.356Z,15.70
2023-03-17T11:35:24.435Z,15.60
2023-03-17T11:38:16.795Z,15.70
2023-03-17T11:40:51.572Z,15.70
2023-03-17T11:45:59.880Z,15.70
2023-03-17T11:48:40.732Z,15.90
2023-03-17T11:51:16.562Z,15.80
2023-03-17T11:53:59.180Z,16.00
2023-03-17T11:56:41.715Z,15.80
2023-03-17T11:59:16.487Z,15.80
2023-03-17T12:02:25.367Z,15.70
2023-03-17T12:05:05.064Z,15.70
2023-03-17T12:07:42.110Z,16.00
2023-03-17T12:10:22.758Z,15.60
2023-03-17T12:12:56.475Z,15.40
2023-03-17T12:18:27.761Z,15.00
2023-03-17T12:21:01.744Z,16.50
2023-03-17T12:23:48.168Z,14.70
2023-03-17T12:26:20.271Z,14.60
2023-03-17T12:28:51.137Z,14.70
2023-03-17T12:31:44.321Z,14.60
2023-03-17T12:34:46.019Z,14.70
2023-03-17T12:37:16.043Z,14.70
2023-03-17T12:40:09.863Z,14.70
2023-03-17T12:45:49.306Z,15.30
2023-03-17T12:49:05.973Z,17.10
2023-03-17T12:51:38.440Z,18.50
2023-03-17T12:54:15.476Z,19.20
2023-03-17T12:56:47.325Z,19.60
2023-03-17T12:59:26.340Z,19.30
2023-03-17T13:02:06.257Z,19.30
2023-03-17T13:04:36.633Z,19.10
2023-03-17T13:07:09.907Z,18.90
2023-03-17T13:09:56.113Z,19.50
2023-03-17T13:12:44.663Z,20.30
2023-03-17T13:15:47.395Z,21.20
2023-03-17T13:18:17.700Z,21.40
2023-03-17T13:20:53.166Z,21.40
2023-03-17T13:23:32.821Z,21.50
2023-03-17T13:26:00.472Z,21.70
2023-03-17T13:28:43.746Z,20.80
2023-03-17T13:31:16.509Z,19.60
2023-03-17T13:33:53.679Z,18.50
2023-03-17T13:36:50.977Z,17.70
2023-03-17T13:39:29.435Z,17.10
2023-03-17T13:42:11.948Z,16.70
2023-03-17T13:47:42.417Z,16.10
2023-03-17T13:50:13.400Z,16.10
2023-03-17T13:52:53.314Z,16.30
2023-03-17T13:58:09.736Z,17.70
2023-03-17T14:00:50.752Z,18.90
2023-03-17T14:03:29.890Z,19.50
2023-03-17T14:08:34.140Z,19.90
2023-03-17T14:11:23.963Z,20.20
2023-03-17T14:14:29.619Z,20.80
2023-03-17T14:17:26.094Z,20.60
2023-03-17T14:20:19.253Z,20.00
2023-03-17T14:22:53.472Z,18.90
2023-03-17T14:25:24.095Z,18.10
2023-03-17T14:27:54.384Z,17.40
2023-03-17T14:30:31.614Z,16.90
2023-03-17T14:33:07.071Z,16.40
2023-03-17T14:35:44.936Z,15.70
2023-03-17T14:38:20.583Z,15.00
2023-03-17T14:40:49.304Z,14.50
2023-03-17T14:43:17.274Z,14.10
2023-03-17T14:45:49.963Z,13.90
2023-03-17T14:48:25.995Z,13.50
2023-03-17T14:50:56.230Z,13.30
2023-03-17T14:53:24.833Z,13.20
2023-03-17T14:55:53.617Z,13.10
2023-03-17T15:00:58.323Z,12.90
2023-03-17T15:03:31.573Z,13.10
2023-03-17T15:11:19.829Z,16.30
2023-03-17T15:13:48.772Z,18.00
2023-03-17T15:16:23.323Z,18.70
2023-03-17T15:19:15.696Z,20.10
2023-03-17T15:21:43.396Z,20.90
2023-03-17T15:24:25.761Z,21.30
2023-03-17T15:27:14.250Z,20.90
2023-03-17T15:32:15.976Z,20.60
2023-03-17T15:37:23.685Z,21.20
2023-03-17T15:39:53.033Z,21.10
2023-03-17T15:42:23.319Z,21.10
2023-03-17T15:44:52.037Z,21.10
2023-03-17T15:47:26.606Z,20.90
2023-03-17T15:49:59.138Z,20.60
2023-03-17T15:52:28.025Z,20.30
2023-03-17T15:54:57.899Z,19.70
2023-03-17T15:57:27.313Z,19.20
2023-03-17T15:59:54.886Z,18.70
2023-03-17T16:02:30.590Z,18.40
2023-03-17T16:05:05.060Z,18.10
2023-03-17T16:07:33.318Z,17.60
2023-03-17T16:10:01.184Z,17.30
2023-03-17T16:14:56.752Z,16.60
2023-03-17T16:17:28.984Z,16.30
2023-03-17T16:19:57.979Z,16.10
2023-03-17T16:22:36.277Z,15.90
2023-03-17T16:25:13.609Z,15.70
2023-03-17T16:35:18.189Z,15.10
2023-03-17T16:37:46.367Z,15.00
2023-03-17T16:40:27.812Z,15.00
2023-03-17T16:45:29.418Z,15.10
2023-03-17T17:02:52.263Z,15.70
2023-03-17T17:05:22.470Z,15.70
2023-03-17T17:17:53.926Z,15.00
2023-03-17T17:27:47.123Z,14.50
2023-03-17T17:37:41.778Z,14.10
2023-03-17T17:40:13.923Z,13.90
2023-03-17T17:50:07.014Z,13.30
2023-03-17T17:55:03.479Z,12.90
2023-03-17T17:57:31.121Z,13.00
2023-03-17T18:17:21.562Z,12.50
2023-03-17T18:19:50.473Z,12.40
2023-03-17T18:22:18.050Z,12.40
2023-03-17T18:27:14.436Z,12.50
2023-03-17T18:29:43.429Z,12.50
2023-03-17T18:34:43.965Z,12.40
2023-03-17T18:37:13.271Z,12.40
2023-03-17T18:47:07.485Z,12.30
2023-03-17T18:49:35.188Z,12.20
2023-03-17T18:52:03.031Z,12.20
2023-03-17T18:54:31.672Z,12.20
2023-03-17T18:56:59.626Z,12.10
2023-03-17T18:59:27.288Z,12.10
2023-03-17T19:01:55.036Z,12.00
2023-03-17T19:04:22.596Z,12.00
2023-03-17T19:06:50.418Z,11.80
2023-03-17T19:09:18.583Z,11.90
2023-03-17T19:11:46.186Z,11.90
2023-03-17T19:14:14.134Z,11.80
2023-03-17T19:16:41.834Z,11.90
2023-03-17T19:19:09.394Z,11.90
2023-03-17T19:21:37.444Z,11.90
2023-03-17T19:24:05.200Z,11.90
2023-03-17T19:26:33.675Z,11.80
2023-03-17T19:29:01.557Z,11.80
2023-03-17T19:31:29.209Z,11.80
2023-03-17T19:33:56.854Z,11.80
2023-03-17T19:36:24.726Z,11.80
2023-03-17T19:38:52.311Z,11.70
2023-03-17T19:43:47.650Z,11.70
2023-03-17T19:46:16.187Z,11.70
2023-03-17T19:48:43.857Z,11.70
2023-03-17T19:51:11.551Z,11.70
2023-03-17T19:53:39.162Z,11.70
2023-03-17T19:56:07.271Z,11.70
2023-03-17T19:58:35.071Z,11.70
2023-03-17T20:01:04.146Z,11.70
2023-03-17T20:03:31.830Z,11.70
2023-03-17T20:06:02.280Z,11.80
2023-03-17T20:08:29.858Z,11.80
2023-03-17T20:10:58.114Z,11.80
2023-03-17T20:13:25.742Z,11.70
2023-03-17T20:15:53.590Z,11.80
2023-03-17T20:18:23.051Z,11.80
2023-03-17T20:20:53.297Z,11.80
2023-03-17T20:23:21.717Z,11.70
2023-03-17T20:25:50.279Z,11.70
2023-03-17T20:28:18.676Z,11.70
2023-03-17T20:30:47.153Z,11.70
2023-03-17T20:33:15.110Z,11.60
2023-03-17T20:35:46.786Z,11.60
2023-03-17T20:38:15.013Z,11.70
2023-03-17T20:40:42.645Z,11.60
2023-03-17T20:43:10.832Z,11.60
2023-03-17T20:45:38.590Z,11.50
2023-03-17T20:48:09.339Z,11.50
2023-03-17T20:50:41.717Z,11.50
2023-03-17T20:53:09.317Z,11.40
2023-03-17T20:55:37.543Z,11.40
2023-03-17T20:58:05.271Z,11.50
2023-03-17T21:00:33.451Z,11.50
2023-03-17T21:03:01.551Z,11.40
2023-03-17T21:05:29.563Z,11.40
2023-03-17T21:07:57.651Z,11.40
2023-03-17T21:10:25.462Z,11.40
2023-03-17T21:12:53.296Z,11.40
2023-03-17T21:15:22.909Z,11.40
2023-03-17T21:17:50.602Z,11.40
2023-03-17T21:20:18.429Z,11.40
2023-03-17T21:22:46.093Z,11.30
2023-03-17T21:25:14.845Z,11.30
2023-03-17T21:27:43.230Z,11.30
2023-03-17T21:30:14.258Z,11.30
2023-03-17T21:32:42.282Z,11.20
2023-03-17T21:35:10.640Z,11.20
2023-03-17T21:37:38.360Z,11.20
2023-03-17T21:40:06.976Z,11.20
2023-03-17T21:42:34.973Z,11.10
2023-03-17T21:45:02.628Z,11.10
2023-03-17T21:47:30.239Z,11.00
2023-03-17T21:49:58.079Z,11.00
2023-03-17T21:52:26.054Z,11.00
2023-03-17T21:54:53.686Z,11.00
2023-03-17T21:57:21.634Z,11.00
2023-03-17T21:59:49.540Z,10.90
2023-03-17T22:02:17.757Z,10.90
2023-03-17T22:04:46.953Z,10.90
2023-03-17T22:07:16.565Z,10.80
2023-03-17T22:09:44.404Z,10.80
2023-03-17T22:12:12.204Z,10.80
2023-03-17T22:14:39.836Z,10.80
2023-03-17T22:17:08.313Z,10.80
2023-03-17T22:19:36.286Z,10.80
2023-03-17T22:22:04.049Z,10.80
2023-03-17T22:24:32.497Z,10.80
2023-03-17T22:27:00.182Z,10.80
2023-03-17T22:29:27.773Z,10.80
2023-03-17T22:31:55.695Z,10.80
2023-03-17T22:34:23.494Z,10.80
2023-03-17T22:36:51.405Z,10.80
2023-03-17T22:39:18.988Z,10.80
2023-03-17T22:41:46.613Z,8.90
2023-03-17T22:44:14.237Z,10.80
2023-03-17T22:46:41.919Z,10.90
2023-03-17T22:49:09.738Z,10.90
2023-03-17T22:51:38.066Z,10.80
2023-03-17T22:54:05.666Z,10.90
2023-03-17T22:56:33.338Z,10.90
2023-03-17T22:59:00.977Z,10.90
2023-03-17T23:01:28.610Z,10.90
2023-03-17T23:03:57.021Z,10.90
2023-03-17T23:06:25.117Z,10.90
2023-03-17T23:08:52.761Z,10.90
2023-03-17T23:13:51.384Z,10.90
2023-03-17T23:16:20.358Z,10.90
2023-03-17T23:18:47.961Z,10.90
2023-03-17T23:21:26.635Z,10.90
2023-03-17T23:23:54.220Z,10.90
2023-03-17T23:26:21.988Z,10.90
2023-03-17T23:28:49.981Z,10.90
2023-03-17T23:31:19.375Z,10.80
2023-03-17T23:33:48.204Z,10.80
2023-03-17T23:36:17.158Z,10.80
2023-03-17T23:38:45.991Z,10.80
2023-03-17T23:41:14.563Z,10.70
2023-03-17T23:43:42.668Z,10.70
2023-03-17T23:46:10.487Z,10.70
2023-03-17T23:48:38.104Z,10.60
2023-03-17T23:51:06.247Z,10.60
2023-03-17T23:53:33.963Z,10.50
2023-03-17T23:56:01.547Z,10.50
2023-03-17T23:58:29.214Z,10.50
